createdAt,value
2023-02-03T00:01:22.978Z,97298.34
2023-02-03T00:11:25.839Z,97308.94
2023-02-03T00:21:29.714Z,97304.63
2023-02-03T00:31:32.373Z,97308.25
2023-02-03T00:41:36.246Z,97311.44
2023-02-03T00:51:38.707Z,97315.72
2023-02-03T01:01:42.602Z,97312.28
2023-02-03T01:11:45.116Z,97313.97
2023-02-03T01:21:49.008Z,97321.09
2023-02-03T01:31:51.665Z,97294.88
2023-02-03T01:41:59.776Z,97274.91
2023-02-03T01:52:02.708Z,97272.56
2023-02-03T02:02:07.713Z,97243.06
2023-02-03T02:12:10.849Z,97278.47
2023-02-03T02:22:19.571Z,97267.34
2023-02-03T02:32:30.189Z,97211.88
2023-02-03T02:42:35.716Z,97203.88
2023-02-03T02:52:45.016Z,97205.28
2023-02-03T03:02:47.591Z,97162.72
2023-02-03T03:12:53.780Z,97173.19
2023-02-03T03:22:58.476Z,97185.53
2023-02-03T03:33:02.433Z,97178.41
2023-02-03T03:43:08.584Z,97170.78
2023-02-03T03:53:13.418Z,97208.41
2023-02-03T04:03:17.996Z,97233.00
2023-02-03T04:13:25.504Z,97248.56
2023-02-03T04:23:28.372Z,97257.34
2023-02-03T04:33:32.237Z,97255.81
2023-02-03T04:43:34.706Z,97258.34
2023-02-03T04:53:38.741Z,97223.59
2023-02-03T05:03:41.315Z,97204.88
2023-02-03T05:13:45.234Z,97206.88
2023-02-03T05:23:48.012Z,97200.50
2023-02-03T05:33:51.837Z,97223.13
2023-02-03T05:43:54.463Z,97259.50
2023-02-03T05:53:58.348Z,97269.47
2023-02-03T06:04:01.229Z,97250.63
2023-02-03T06:14:05.328Z,97237.38
2023-02-03T06:24:08.218Z,97246.84
2023-02-03T06:34:15.006Z,97221.59
2023-02-03T06:44:17.510Z,97213.34
2023-02-03T06:54:21.822Z,97230.38
2023-02-03T07:04:24.733Z,97200.38
2023-02-03T07:14:29.027Z,97205.97
2023-02-03T07:24:35.649Z,97204.22
2023-02-03T07:34:39.649Z,97198.97
2023-02-03T07:44:42.176Z,97196.50
2023-02-03T07:54:46.061Z,97195.69
2023-02-03T08:04:48.675Z,97228.06
2023-02-03T08:14:52.572Z,97258.69
2023-02-03T08:24:55.022Z,97263.81
2023-02-03T08:34:58.856Z,97257.28
2023-02-03T08:45:03.404Z,97279.66
2023-02-03T08:55:09.132Z,97274.00
2023-02-03T09:05:11.747Z,97286.94
2023-02-03T09:15:20.283Z,97273.88
2023-02-03T09:25:22.756Z,97248.13
2023-02-03T09:35:29.250Z,97250.59
2023-02-03T09:45:32.174Z,97264.38
2023-02-03T09:55:38.159Z,97253.66
2023-02-03T10:06:00.998Z,97277.47
2023-02-03T10:16:15.136Z,97243.63
2023-02-03T10:26:20.976Z,97237.03
2023-02-03T10:36:31.563Z,97241.53
2023-02-03T10:46:36.330Z,97258.56
2023-02-03T10:56:40.854Z,97269.63
2023-02-03T11:06:54.470Z,97231.25
2023-02-03T11:16:58.441Z,97194.09
2023-02-03T11:27:04.623Z,97181.13
2023-02-03T11:37:22.070Z,97179.19
2023-02-03T11:47:26.011Z,97174.41
2023-02-03T11:57:35.292Z,97183.31
2023-02-03T12:07:45.049Z,97194.56
2023-02-03T12:18:05.788Z,97170.03
2023-02-03T12:28:32.643Z,97165.72
2023-02-03T12:38:40.741Z,97156.56
2023-02-03T12:48:48.525Z,97152.25
2023-02-03T12:58:53.754Z,97136.88
2023-02-03T13:09:05.122Z,97127.72
2023-02-03T13:19:09.205Z,97091.56
2023-02-03T13:29:23.862Z,97083.84
2023-02-03T13:39:34.145Z,97082.84
2023-02-03T13:49:38.269Z,97115.63
2023-02-03T13:59:42.573Z,97104.63
2023-02-03T14:09:55.227Z,97085.00
2023-02-03T14:19:57.764Z,97101.97
2023-02-03T14:30:07.984Z,97129.16
2023-02-03T14:40:21.954Z,97147.81
2023-02-03T14:50:33.610Z,97138.94
2023-02-03T15:00:37.537Z,97138.13
2023-02-03T15:10:44.476Z,97139.22
2023-02-03T15:20:47.968Z,97144.66
2023-02-03T15:30:53.753Z,97148.53
2023-02-03T15:40:58.623Z,97130.31
2023-02-03T15:51:06.242Z,97133.78
2023-02-03T16:01:10.730Z,97152.38
2023-02-03T16:11:24.857Z,97154.38
2023-02-03T16:21:42.333Z,97154.94
2023-02-03T16:32:17.037Z,97149.16
2023-02-03T16:42:39.059Z,97133.59
2023-02-03T16:52:41.560Z,97139.28
2023-02-03T17:02:45.447Z,97142.31
2023-02-03T17:12:47.985Z,97156.88
2023-02-03T17:22:54.375Z,97157.13
2023-02-03T17:32:59.301Z,97180.56
2023-02-03T17:53:24.730Z,97175.44
2023-02-03T18:03:28.523Z,97194.84
2023-02-03T18:13:33.190Z,97204.72
2023-02-03T18:23:37.380Z,97223.19
2023-02-03T18:33:39.942Z,97239.31
2023-02-03T18:43:44.203Z,97229.50
2023-02-03T18:53:48.972Z,97221.09
2023-02-03T19:03:53.336Z,97218.06
2023-02-03T19:13:55.998Z,97206.16
2023-02-03T19:23:59.859Z,97201.78
2023-02-03T19:34:04.239Z,97204.06
2023-02-03T19:44:08.341Z,97214.84
2023-02-03T19:54:12.187Z,97208.63
2023-02-03T20:04:16.048Z,97219.78
2023-02-03T20:14:19.161Z,97231.50
2023-02-03T20:24:36.728Z,97253.44
2023-02-03T20:34:41.543Z,97251.47
2023-02-03T20:44:44.078Z,97255.00
2023-02-03T20:54:47.951Z,97238.34
2023-02-03T21:05:00.206Z,97230.22
2023-02-03T21:15:04.021Z,97239.09
2023-02-03T21:25:07.561Z,97249.16
2023-02-03T21:35:24.056Z,97248.34
2023-02-03T21:45:35.545Z,97216.41
2023-02-03T21:55:40.914Z,97231.09
2023-02-03T22:05:43.391Z,97242.22
2023-02-03T22:15:48.848Z,97254.88
2023-02-03T22:25:51.686Z,97252.94
2023-02-03T22:35:55.612Z,97259.19
2023-02-03T22:45:58.403Z,97277.78
2023-02-03T22:56:02.353Z,97282.06
2023-02-03T23:06:04.968Z,97298.28
2023-02-03T23:16:09.085Z,97296.00
2023-02-03T23:26:11.552Z,97297.91
2023-02-03T23:36:15.440Z,97281.06
2023-02-03T23:46:17.974Z,97280.50
2023-02-03T23:56:22.093Z,97276.56
